sensor_id;sensor_type;location;lat;lon;timestamp;temperature;humidity
33841;DHT22;20142;28.494;-16.312;2024-03-08T00:04:40;14.30;94.90
33841;DHT22;20142;28.494;-16.312;2024-03-08T00:09:43;14.30;95.30
33841;DHT22;20142;28.494;-16.312;2024-03-08T00:14:45;14.30;95.40
33841;DHT22;20142;28.494;-16.312;2024-03-08T00:19:46;14.40;95.20
33841;DHT22;20142;28.494;-16.312;2024-03-08T00:24:48;14.20;95.20
33841;DHT22;20142;28.494;-16.312;2024-03-08T00:29:52;14.30;94.80
33841;DHT22;20142;28.494;-16.312;2024-03-08T00:34:54;14.40;94.70
33841;DHT22;20142;28.494;-16.312;2024-03-08T00:39:55;14.40;94.40
33841;DHT22;20142;28.494;-16.312;2024-03-08T00:44:57;14.40;94.40
33841;DHT22;20142;28.494;-16.312;2024-03-08T00:49:59;14.40;93.70
33841;DHT22;20142;28.494;-16.312;2024-03-08T00:55:01;14.40;93.50
33841;DHT22;20142;28.494;-16.312;2024-03-08T01:00:06;14.40;93.40
33841;DHT22;20142;28.494;-16.312;2024-03-08T01:05:13;14.50;93.60
33841;DHT22;20142;28.494;-16.312;2024-03-08T01:10:15;14.60;93.50
33841;DHT22;20142;28.494;-16.312;2024-03-08T01:15:17;14.40;93.70
33841;DHT22;20142;28.494;-16.312;2024-03-08T01:20:18;14.30;93.80
33841;DHT22;20142;28.494;-16.312;2024-03-08T01:25:20;14.40;93.90
33841;DHT22;20142;28.494;-16.312;2024-03-08T01:30:22;14.40;93.90
33841;DHT22;20142;28.494;-16.312;2024-03-08T01:35:24;14.30;93.60
33841;DHT22;20142;28.494;-16.312;2024-03-08T01:40:27;14.20;93.90
33841;DHT22;20142;28.494;-16.312;2024-03-08T01:45:29;14.20;93.80
33841;DHT22;20142;28.494;-16.312;2024-03-08T01:50:31;14.20;93.90
33841;DHT22;20142;28.494;-16.312;2024-03-08T01:55:33;14.10;93.80
33841;DHT22;20142;28.494;-16.312;2024-03-08T02:00:38;14.10;93.70
33841;DHT22;20142;28.494;-16.312;2024-03-08T02:05:41;14.00;93.10
33841;DHT22;20142;28.494;-16.312;2024-03-08T02:10:45;13.90;92.80
33841;DHT22;20142;28.494;-16.312;2024-03-08T02:15:53;14.00;92.40
33841;DHT22;20142;28.494;-16.312;2024-03-08T02:20:57;13.90;92.30
33841;DHT22;20142;28.494;-16.312;2024-03-08T02:26:00;13.90;92.40
33841;DHT22;20142;28.494;-16.312;2024-03-08T02:31:02;14.00;92.10
33841;DHT22;20142;28.494;-16.312;2024-03-08T02:36:04;13.90;91.80
33841;DHT22;20142;28.494;-16.312;2024-03-08T02:41:07;13.90;91.60
33841;DHT22;20142;28.494;-16.312;2024-03-08T02:46:10;14.00;91.60
33841;DHT22;20142;28.494;-16.312;2024-03-08T02:51:11;14.00;90.50
33841;DHT22;20142;28.494;-16.312;2024-03-08T02:56:15;14.00;90.00
33841;DHT22;20142;28.494;-16.312;2024-03-08T03:01:17;14.00;89.80
33841;DHT22;20142;28.494;-16.312;2024-03-08T03:06:21;14.10;89.60
33841;DHT22;20142;28.494;-16.312;2024-03-08T03:11:23;14.00;89.50
33841;DHT22;20142;28.494;-16.312;2024-03-08T03:16:25;14.00;89.20
33841;DHT22;20142;28.494;-16.312;2024-03-08T03:21:28;14.00;89.10
33841;DHT22;20142;28.494;-16.312;2024-03-08T03:26:32;13.90;88.70
33841;DHT22;20142;28.494;-16.312;2024-03-08T03:31:35;13.90;89.00
33841;DHT22;20142;28.494;-16.312;2024-03-08T03:36:37;14.00;89.00
33841;DHT22;20142;28.494;-16.312;2024-03-08T03:41:43;13.90;89.50
33841;DHT22;20142;28.494;-16.312;2024-03-08T03:46:47;14.00;89.60
33841;DHT22;20142;28.494;-16.312;2024-03-08T03:51:49;14.00;89.90
33841;DHT22;20142;28.494;-16.312;2024-03-08T03:56:51;14.00;90.00
33841;DHT22;20142;28.494;-16.312;2024-03-08T04:01:54;14.00;89.80
33841;DHT22;20142;28.494;-16.312;2024-03-08T04:06:56;14.00;89.90
33841;DHT22;20142;28.494;-16.312;2024-03-08T04:11:57;14.00;90.40
33841;DHT22;20142;28.494;-16.312;2024-03-08T04:16:59;14.00;90.80
33841;DHT22;20142;28.494;-16.312;2024-03-08T04:22:01;14.00;90.70
33841;DHT22;20142;28.494;-16.312;2024-03-08T04:27:03;14.00;91.30
33841;DHT22;20142;28.494;-16.312;2024-03-08T04:32:06;13.90;91.40
33841;DHT22;20142;28.494;-16.312;2024-03-08T04:37:09;14.00;92.20
33841;DHT22;20142;28.494;-16.312;2024-03-08T04:42:15;13.90;92.50
33841;DHT22;20142;28.494;-16.312;2024-03-08T04:47:19;13.90;92.80
33841;DHT22;20142;28.494;-16.312;2024-03-08T04:52:21;13.90;93.10
33841;DHT22;20142;28.494;-16.312;2024-03-08T04:57:23;13.90;93.10
33841;DHT22;20142;28.494;-16.312;2024-03-08T05:02:26;14.00;93.20
33841;DHT22;20142;28.494;-16.312;2024-03-08T05:07:28;13.90;93.10
33841;DHT22;20142;28.494;-16.312;2024-03-08T05:12:30;13.90;93.00
33841;DHT22;20142;28.494;-16.312;2024-03-08T05:17:32;13.90;93.00
33841;DHT22;20142;28.494;-16.312;2024-03-08T05:22:34;13.90;92.70
33841;DHT22;20142;28.494;-16.312;2024-03-08T05:27:36;14.00;92.80
33841;DHT22;20142;28.494;-16.312;2024-03-08T05:32:38;13.80;92.70
33841;DHT22;20142;28.494;-16.312;2024-03-08T05:37:40;13.80;92.80
33841;DHT22;20142;28.494;-16.312;2024-03-08T05:42:42;13.70;93.00
33841;DHT22;20142;28.494;-16.312;2024-03-08T05:47:43;13.70;93.10
33841;DHT22;20142;28.494;-16.312;2024-03-08T05:52:45;13.70;93.30
33841;DHT22;20142;28.494;-16.312;2024-03-08T05:57:48;13.70;93.50
33841;DHT22;20142;28.494;-16.312;2024-03-08T06:02:50;13.70;93.40
33841;DHT22;20142;28.494;-16.312;2024-03-08T06:07:52;13.60;94.00
33841;DHT22;20142;28.494;-16.312;2024-03-08T06:12:54;13.70;94.10
33841;DHT22;20142;28.494;-16.312;2024-03-08T06:17:56;13.70;94.10
33841;DHT22;20142;28.494;-16.312;2024-03-08T06:22:57;13.80;94.50
33841;DHT22;20142;28.494;-16.312;2024-03-08T06:27:59;13.80;94.20
33841;DHT22;20142;28.494;-16.312;2024-03-08T06:33:01;13.80;93.80
33841;DHT22;20142;28.494;-16.312;2024-03-08T06:38:04;13.80;93.80
33841;DHT22;20142;28.494;-16.312;2024-03-08T06:43:06;13.80;93.60
33841;DHT22;20142;28.494;-16.312;2024-03-08T06:48:08;13.90;92.90
33841;DHT22;20142;28.494;-16.312;2024-03-08T06:53:11;13.80;93.00
33841;DHT22;20142;28.494;-16.312;2024-03-08T06:58:13;13.80;92.80
33841;DHT22;20142;28.494;-16.312;2024-03-08T07:03:15;13.90;92.50
33841;DHT22;20142;28.494;-16.312;2024-03-08T07:08:18;13.80;92.50
33841;DHT22;20142;28.494;-16.312;2024-03-08T07:13:20;13.70;92.20
33841;DHT22;20142;28.494;-16.312;2024-03-08T07:18:22;13.80;92.20
33841;DHT22;20142;28.494;-16.312;2024-03-08T07:23:24;13.70;92.30
33841;DHT22;20142;28.494;-16.312;2024-03-08T07:28:46;13.70;92.40
33841;DHT22;20142;28.494;-16.312;2024-03-08T07:33:47;13.80;92.30
33841;DHT22;20142;28.494;-16.312;2024-03-08T07:38:51;13.90;92.30
33841;DHT22;20142;28.494;-16.312;2024-03-08T07:43:53;13.90;92.30
33841;DHT22;20142;28.494;-16.312;2024-03-08T07:48:55;14.10;92.30
33841;DHT22;20142;28.494;-16.312;2024-03-08T07:53:56;14.10;92.20
33841;DHT22;20142;28.494;-16.312;2024-03-08T07:58:58;14.20;92.40
33841;DHT22;20142;28.494;-16.312;2024-03-08T08:04:00;14.20;92.10
33841;DHT22;20142;28.494;-16.312;2024-03-08T08:09:02;14.30;91.90
33841;DHT22;20142;28.494;-16.312;2024-03-08T08:14:04;14.30;91.30
33841;DHT22;20142;28.494;-16.312;2024-03-08T08:19:05;14.30;91.50
33841;DHT22;20142;28.494;-16.312;2024-03-08T08:24:08;14.40;91.60
33841;DHT22;20142;28.494;-16.312;2024-03-08T08:29:11;14.40;91.90
33841;DHT22;20142;28.494;-16.312;2024-03-08T23:52:53;14.40;89.80
33841;DHT22;20142;28.494;-16.312;2024-03-08T23:57:58;14.70;90.30
